createdAt,value
2023-02-23T00:01:11.627Z,44.53
2023-02-23T00:03:40.489Z,40.63
2023-02-23T00:06:08.178Z,45.83
2023-02-23T00:08:36.398Z,41.55
2023-02-23T00:11:03.822Z,38.53
2023-02-23T00:13:30.201Z,46.97
2023-02-23T00:15:56.567Z,41.55
2023-02-23T00:18:23.126Z,38.45
2023-02-23T00:20:58.059Z,42.58
2023-02-23T00:23:27.390Z,40.17
2023-02-23T00:25:53.753Z,41.30
2023-02-23T00:28:20.144Z,41.97
2023-02-23T00:30:46.710Z,45.72
2023-02-23T00:33:13.047Z,41.80
2023-02-23T00:35:39.470Z,40.13
2023-02-23T00:38:05.789Z,39.53
2023-02-23T00:40:32.162Z,41.72
2023-02-23T00:42:58.536Z,37.33
2023-02-23T00:45:24.851Z,39.05
2023-02-23T00:47:51.183Z,36.72
2023-02-23T00:50:18.134Z,43.35
2023-02-23T00:52:44.696Z,37.92
2023-02-23T00:55:12.420Z,36.97
2023-02-23T00:57:38.825Z,35.85
2023-02-23T01:00:23.739Z,42.50
2023-02-23T01:02:50.375Z,43.00
2023-02-23T01:05:16.888Z,39.67
2023-02-23T01:07:46.455Z,35.97
2023-02-23T01:10:19.754Z,37.22
2023-02-23T01:12:55.053Z,36.03
2023-02-23T01:15:21.549Z,37.60
2023-02-23T01:17:47.980Z,39.75
2023-02-23T01:20:20.444Z,33.45
2023-02-23T01:22:49.092Z,35.15
2023-02-23T01:25:16.542Z,33.78
2023-02-23T01:27:46.058Z,34.15
2023-02-23T01:30:14.835Z,32.38
2023-02-23T01:32:41.695Z,34.20
2023-02-23T01:35:08.817Z,38.50
2023-02-23T01:37:36.056Z,32.78
2023-02-23T01:40:10.683Z,32.30
2023-02-23T01:42:38.586Z,35.80
2023-02-23T01:45:17.213Z,33.63
2023-02-23T01:47:44.006Z,36.92
2023-02-23T01:50:11.854Z,34.80
2023-02-23T01:52:40.055Z,31.13
2023-02-23T01:55:06.562Z,36.92
2023-02-23T01:57:32.892Z,30.77
2023-02-23T02:00:01.624Z,34.10
2023-02-23T02:02:33.389Z,32.13
2023-02-23T02:05:01.797Z,29.15
2023-02-23T02:07:29.831Z,31.88
2023-02-23T02:10:11.852Z,35.40
2023-02-23T02:12:39.198Z,34.10
2023-02-23T02:15:07.651Z,31.55
2023-02-23T02:17:40.133Z,34.83
2023-02-23T02:20:18.645Z,29.85
2023-02-23T02:22:51.420Z,34.50
2023-02-23T02:25:20.733Z,31.23
2023-02-23T02:28:04.129Z,33.63
2023-02-23T02:30:45.476Z,32.75
2023-02-23T02:33:19.143Z,29.45
2023-02-23T02:35:57.558Z,33.67
2023-02-23T02:38:47.016Z,29.73
2023-02-23T02:41:13.348Z,31.58
2023-02-23T02:43:53.517Z,33.45
2023-02-23T02:46:23.107Z,30.38
2023-02-23T02:48:49.558Z,29.60
2023-02-23T02:51:18.551Z,27.90
2023-02-23T02:53:45.105Z,32.35
2023-02-23T02:56:13.042Z,29.95
2023-02-23T02:58:42.344Z,30.73
2023-02-23T03:01:28.169Z,29.80
2023-02-23T03:04:13.096Z,31.98
2023-02-23T03:07:04.147Z,28.77
2023-02-23T03:09:58.025Z,27.02
2023-02-23T03:12:55.015Z,29.42
2023-02-23T03:15:46.158Z,28.15
2023-02-23T03:18:41.305Z,29.10
2023-02-23T03:21:30.757Z,28.52
2023-02-23T03:24:29.158Z,28.55
2023-02-23T03:27:35.561Z,28.45
2023-02-23T03:30:24.768Z,31.70
2023-02-23T03:33:11.948Z,27.27
2023-02-23T03:36:25.972Z,29.35
2023-02-23T03:39:19.369Z,29.98
2023-02-23T03:42:05.830Z,29.13
2023-02-23T03:44:59.703Z,29.13
2023-02-23T03:47:48.305Z,30.80
2023-02-23T03:50:43.153Z,32.28
2023-02-23T03:53:29.423Z,27.83
2023-02-23T03:56:15.808Z,29.48
2023-02-23T03:59:26.832Z,33.40
2023-02-23T04:02:13.629Z,30.42
2023-02-23T04:04:59.605Z,32.63
2023-02-23T04:10:29.787Z,28.13
2023-02-23T04:13:17.154Z,30.48
2023-02-23T04:15:57.672Z,31.67
2023-02-23T04:18:25.674Z,34.00
2023-02-23T04:20:52.126Z,33.03
2023-02-23T04:23:18.731Z,32.97
2023-02-23T04:25:45.104Z,30.73
2023-02-23T04:28:11.558Z,27.27
2023-02-23T04:30:40.913Z,31.27
2023-02-23T04:33:07.292Z,29.10
2023-02-23T04:35:35.147Z,31.55
2023-02-23T04:38:01.620Z,29.02
2023-02-23T04:40:28.154Z,27.67
2023-02-23T04:42:55.141Z,33.92
2023-02-23T04:45:22.185Z,36.42
2023-02-23T04:47:53.896Z,32.90
2023-02-23T04:50:20.445Z,32.40
2023-02-23T04:52:47.114Z,32.45
2023-02-23T04:55:17.963Z,32.15
2023-02-23T04:57:44.490Z,35.35
2023-02-23T05:00:12.728Z,35.28
2023-02-23T05:02:39.516Z,34.22
2023-02-23T05:05:07.149Z,29.70
2023-02-23T05:07:33.992Z,33.17
2023-02-23T05:10:00.445Z,36.05
2023-02-23T05:12:29.791Z,30.33
2023-02-23T05:14:56.455Z,28.52
2023-02-23T05:17:23.012Z,33.50
2023-02-23T05:19:49.333Z,33.53
2023-02-23T05:22:15.719Z,36.25
2023-02-23T05:24:42.386Z,36.70
2023-02-23T05:27:09.635Z,33.83
2023-02-23T05:29:36.012Z,32.78
2023-02-23T05:32:02.595Z,34.55
2023-02-23T05:34:29.335Z,36.10
2023-02-23T05:36:55.684Z,29.58
2023-02-23T05:39:22.459Z,28.98
2023-02-23T05:41:48.874Z,28.15
2023-02-23T05:44:15.576Z,27.38
2023-02-23T05:46:42.090Z,29.65
2023-02-23T05:49:08.561Z,27.98
2023-02-23T05:51:35.064Z,24.08
2023-02-23T05:54:01.745Z,26.65
2023-02-23T05:56:28.452Z,27.75
2023-02-23T05:58:55.824Z,23.52
2023-02-23T06:01:22.474Z,24.45
2023-02-23T06:03:49.178Z,23.85
2023-02-23T06:06:15.643Z,20.83
2023-02-23T06:08:42.609Z,21.67
2023-02-23T06:11:09.596Z,20.80
2023-02-23T06:13:35.979Z,23.98
2023-02-23T06:16:02.581Z,23.92
2023-02-23T06:18:29.440Z,22.95
2023-02-23T06:20:58.442Z,18.77
2023-02-23T06:23:24.786Z,22.35
2023-02-23T06:25:51.708Z,19.88
2023-02-23T06:28:18.320Z,21.83
2023-02-23T06:30:46.771Z,23.17
2023-02-23T06:33:13.169Z,26.90
2023-02-23T06:35:39.800Z,28.33
2023-02-23T06:38:06.319Z,30.55
2023-02-23T06:40:33.348Z,31.70
2023-02-23T06:43:00.478Z,32.35
2023-02-23T06:45:26.941Z,32.88
2023-02-23T06:47:53.751Z,26.63
2023-02-23T06:50:20.163Z,27.15
2023-02-23T06:52:46.624Z,21.30
2023-02-23T06:55:16.115Z,22.52
2023-02-23T06:57:44.077Z,23.48
2023-02-23T07:00:15.087Z,23.13
2023-02-23T07:02:42.008Z,20.33
2023-02-23T07:05:08.663Z,23.73
2023-02-23T07:07:35.097Z,20.48
2023-02-23T07:10:01.489Z,21.85
2023-02-23T07:12:27.963Z,20.67
2023-02-23T07:14:54.478Z,23.42
2023-02-23T07:17:20.862Z,21.73
2023-02-23T07:19:49.681Z,18.63
2023-02-23T07:22:16.054Z,23.70
2023-02-23T07:24:42.365Z,18.67
2023-02-23T07:27:08.764Z,21.67
2023-02-23T07:29:35.099Z,17.83
2023-02-23T07:32:04.226Z,19.50
2023-02-23T07:34:30.676Z,20.23
2023-02-23T07:36:57.005Z,19.15
2023-02-23T07:39:23.384Z,18.63
2023-02-23T07:41:52.684Z,18.45
2023-02-23T07:44:19.680Z,19.45
2023-02-23T07:46:46.561Z,19.27
2023-02-23T07:49:13.907Z,18.98
2023-02-23T07:51:40.960Z,23.20
2023-02-23T07:54:07.741Z,20.25
2023-02-23T07:56:35.473Z,19.45
2023-02-23T07:59:02.307Z,19.15
2023-02-23T08:01:28.750Z,17.80
2023-02-23T08:03:55.397Z,18.45
2023-02-23T08:06:21.823Z,20.98
2023-02-23T08:12:19.920Z,20.10
2023-02-23T08:14:46.753Z,19.10
2023-02-23T08:17:13.204Z,20.98
2023-02-23T08:19:40.125Z,17.10
2023-02-23T08:22:08.959Z,16.80
2023-02-23T08:24:37.090Z,19.77
2023-02-23T08:27:03.529Z,21.98
2023-02-23T08:29:30.240Z,15.02
2023-02-23T08:31:56.857Z,17.73
2023-02-23T08:34:23.978Z,17.88
2023-02-23T08:36:50.328Z,16.55
2023-02-23T08:39:16.998Z,15.68
2023-02-23T08:41:43.443Z,17.25
2023-02-23T08:44:10.002Z,17.20
2023-02-23T08:46:36.347Z,15.63
2023-02-23T08:49:04.686Z,14.60
2023-02-23T08:51:31.324Z,14.63
2023-02-23T08:53:57.674Z,14.77
2023-02-23T08:56:25.514Z,15.38
2023-02-23T08:58:53.035Z,16.27
2023-02-23T09:01:22.041Z,13.40
2023-02-23T09:03:48.809Z,16.83
2023-02-23T09:06:17.516Z,15.13
2023-02-23T09:08:44.042Z,14.75
2023-02-23T09:11:10.420Z,13.75
2023-02-23T09:13:36.915Z,16.67
2023-02-23T09:16:07.864Z,16.85
2023-02-23T09:18:34.776Z,14.82
2023-02-23T09:21:06.485Z,15.98
2023-02-23T09:23:34.116Z,17.27
2023-02-23T09:26:06.858Z,15.07
2023-02-23T09:28:34.161Z,17.38
2023-02-23T09:31:14.049Z,16.45
2023-02-23T09:33:40.512Z,17.33
2023-02-23T09:36:12.912Z,15.23
2023-02-23T09:38:59.054Z,15.65
2023-02-23T09:43:57.991Z,16.08
2023-02-23T09:46:30.568Z,16.20
2023-02-23T09:48:57.813Z,16.98
2023-02-23T09:51:24.863Z,14.48
2023-02-23T09:53:53.841Z,16.70
2023-02-23T09:56:33.092Z,18.38
2023-02-23T09:59:00.609Z,16.48
2023-02-23T10:01:42.192Z,15.95
2023-02-23T10:04:28.903Z,14.93
2023-02-23T10:06:58.496Z,16.63
2023-02-23T10:09:37.451Z,16.77
2023-02-23T10:12:03.831Z,18.35
2023-02-23T10:14:36.510Z,16.50
2023-02-23T10:17:32.482Z,16.23
2023-02-23T10:20:01.645Z,15.48
2023-02-23T10:22:28.756Z,14.40
2023-02-23T10:25:04.839Z,16.38
2023-02-23T10:27:38.132Z,16.20
2023-02-23T10:30:13.092Z,16.05
2023-02-23T10:32:51.505Z,19.70
2023-02-23T10:35:20.567Z,17.58
2023-02-23T10:37:47.492Z,15.60
2023-02-23T10:40:16.072Z,15.32
2023-02-23T10:42:42.467Z,18.13
2023-02-23T10:45:18.682Z,20.45
2023-02-23T10:47:45.851Z,16.83
2023-02-23T10:50:13.527Z,18.75
2023-02-23T10:52:45.434Z,19.50
2023-02-23T10:55:31.199Z,18.30
2023-02-23T10:58:02.564Z,20.15
2023-02-23T11:00:33.054Z,18.88
2023-02-23T11:03:00.720Z,23.85
2023-02-23T11:05:56.550Z,22.92
2023-02-23T11:08:25.243Z,22.20
2023-02-23T11:10:55.693Z,23.00
2023-02-23T11:13:29.836Z,22.50
2023-02-23T11:16:00.584Z,27.23
2023-02-23T11:18:27.460Z,29.08
2023-02-23T11:20:54.803Z,25.00
2023-02-23T11:23:31.660Z,23.42
2023-02-23T11:26:02.492Z,28.33
2023-02-23T11:28:36.336Z,29.35
2023-02-23T11:31:04.800Z,30.88
2023-02-23T11:33:35.909Z,28.02
2023-02-23T11:36:25.613Z,28.92
2023-02-23T11:39:01.082Z,30.63
2023-02-23T11:41:27.658Z,27.02
2023-02-23T11:43:58.129Z,28.52
2023-02-23T11:46:25.149Z,35.95
2023-02-23T11:48:52.914Z,30.58
2023-02-23T11:51:31.633Z,28.15
2023-02-23T11:53:58.441Z,27.15
2023-02-23T11:56:25.786Z,25.58
2023-02-23T11:58:58.663Z,26.67
2023-02-23T12:01:54.351Z,29.63
2023-02-23T12:04:31.092Z,26.33
2023-02-23T12:07:16.137Z,25.42
2023-02-23T12:09:43.195Z,22.42
2023-02-23T12:12:12.444Z,26.02
2023-02-23T12:14:42.259Z,28.63
2023-02-23T12:17:14.528Z,27.15
2023-02-23T12:19:45.244Z,23.65
2023-02-23T12:22:13.860Z,27.08
2023-02-23T12:24:56.431Z,26.13
2023-02-23T12:27:38.117Z,23.58
2023-02-23T12:30:19.513Z,25.08
2023-02-23T12:32:49.389Z,24.15
2023-02-23T12:35:21.947Z,22.92
2023-02-23T12:37:51.253Z,22.63
2023-02-23T12:40:30.953Z,25.73
2023-02-23T12:43:04.823Z,22.38
2023-02-23T12:45:37.246Z,21.85
2023-02-23T12:48:22.563Z,27.27
2023-02-23T12:50:53.615Z,24.27
2023-02-23T12:53:22.354Z,21.88
2023-02-23T12:56:04.555Z,24.38
2023-02-23T12:58:36.970Z,25.15
2023-02-23T13:01:12.947Z,25.77
2023-02-23T13:03:53.677Z,30.58
2023-02-23T13:06:30.479Z,30.13
2023-02-23T13:09:12.443Z,26.55
2023-02-23T13:11:57.654Z,28.17
2023-02-23T13:14:39.931Z,29.67
2023-02-23T13:17:17.206Z,28.27
2023-02-23T13:19:56.265Z,29.05
2023-02-23T13:22:49.227Z,31.42
2023-02-23T13:25:24.612Z,31.15
2023-02-23T13:27:57.724Z,30.92
2023-02-23T13:30:24.149Z,27.73
2023-02-23T13:32:50.652Z,28.85
2023-02-23T13:35:19.070Z,30.40
2023-02-23T13:37:51.488Z,31.38
2023-02-23T13:40:36.272Z,30.65
2023-02-23T13:43:17.643Z,30.08
2023-02-23T13:45:59.619Z,29.38
2023-02-23T13:48:56.769Z,29.90
2023-02-23T13:51:29.058Z,29.02
2023-02-23T13:54:00.692Z,31.05
2023-02-23T13:56:30.903Z,32.70
2023-02-23T13:59:02.090Z,35.33
2023-02-23T14:01:43.823Z,28.25
2023-02-23T14:04:14.971Z,29.23
2023-02-23T14:06:50.784Z,33.70
2023-02-23T14:09:23.972Z,29.58
2023-02-23T14:12:02.170Z,31.05
2023-02-23T14:14:31.884Z,29.38
2023-02-23T14:17:21.324Z,33.38
2023-02-23T14:19:50.714Z,29.50
2023-02-23T14:22:18.556Z,29.05
2023-02-23T14:24:44.978Z,26.58
2023-02-23T14:27:40.241Z,30.15
2023-02-23T14:30:10.276Z,27.90
2023-02-23T14:32:40.909Z,32.95
2023-02-23T14:35:27.725Z,27.85
2023-02-23T14:38:00.168Z,33.90
2023-02-23T14:40:31.998Z,28.60
2023-02-23T14:43:00.630Z,32.28
2023-02-23T14:45:29.554Z,33.88
2023-02-23T14:47:57.405Z,30.67
2023-02-23T14:50:34.887Z,31.80
2023-02-23T14:53:04.467Z,32.50
2023-02-23T14:55:33.207Z,32.13
2023-02-23T14:58:00.388Z,35.08
2023-02-23T15:00:32.610Z,28.92
2023-02-23T15:03:00.715Z,29.50
2023-02-23T15:05:29.215Z,31.80
2023-02-23T15:07:58.724Z,30.95
2023-02-23T15:10:29.464Z,32.15
2023-02-23T15:12:56.415Z,38.30
2023-02-23T15:15:24.568Z,34.90
2023-02-23T15:17:53.412Z,36.45
2023-02-23T15:20:32.458Z,33.65
2023-02-23T15:23:00.149Z,36.92
2023-02-23T15:25:34.472Z,38.63
2023-02-23T15:28:10.149Z,45.55
2023-02-23T15:35:30.000Z,48.33
2023-02-23T15:38:11.192Z,44.95
2023-02-23T15:40:44.927Z,51.67
2023-02-23T15:43:11.645Z,58.65
2023-02-23T15:46:04.505Z,58.60
2023-02-23T15:48:40.511Z,55.10
2023-02-23T15:51:07.106Z,63.20
2023-02-23T15:53:35.425Z,64.55
2023-02-23T15:56:22.619Z,66.65
2023-02-23T15:58:57.081Z,72.47
2023-02-23T16:01:28.438Z,70.37
2023-02-23T16:03:57.148Z,68.35
2023-02-23T16:06:25.647Z,65.22
2023-02-23T16:09:06.220Z,71.90
2023-02-23T16:11:36.094Z,68.03
2023-02-23T16:14:05.518Z,65.38
2023-02-23T16:16:35.530Z,57.85
2023-02-23T16:19:02.753Z,55.80
2023-02-23T16:21:34.851Z,58.42
2023-02-23T16:24:06.312Z,59.15
2023-02-23T16:26:41.401Z,65.38
2023-02-23T16:29:11.005Z,64.13
2023-02-23T16:31:44.713Z,58.78
2023-02-23T16:34:38.098Z,49.35
2023-02-23T16:37:18.166Z,48.70
2023-02-23T16:39:44.823Z,41.10
2023-02-23T16:42:21.209Z,43.00
2023-02-23T16:44:48.449Z,42.53
2023-02-23T16:47:23.804Z,46.13
2023-02-23T16:49:50.691Z,46.80
2023-02-23T16:52:18.258Z,53.38
2023-02-23T16:54:47.410Z,48.10
2023-02-23T16:57:22.423Z,58.53
2023-02-23T16:59:50.689Z,52.90
2023-02-23T17:02:22.932Z,55.72
2023-02-23T17:04:49.971Z,67.35
2023-02-23T17:07:16.839Z,59.83
2023-02-23T17:09:43.500Z,63.17
2023-02-23T17:12:11.638Z,63.85
2023-02-23T17:14:38.406Z,65.78
2023-02-23T17:17:04.945Z,70.53
2023-02-23T17:19:31.321Z,69.95
2023-02-23T17:21:57.747Z,69.90
2023-02-23T17:24:26.092Z,70.97
2023-02-23T17:26:53.400Z,73.65
2023-02-23T17:29:20.055Z,74.28
2023-02-23T17:31:46.644Z,76.18
2023-02-23T17:34:15.635Z,74.10
2023-02-23T17:36:42.039Z,71.50
2023-02-23T17:39:10.119Z,77.55
2023-02-23T17:41:37.074Z,72.00
2023-02-23T17:44:06.005Z,71.28
2023-02-23T17:46:32.790Z,72.05
2023-02-23T17:48:59.224Z,65.75
2023-02-23T17:51:25.805Z,57.38
2023-02-23T17:53:52.287Z,61.60
2023-02-23T17:56:20.118Z,60.85
2023-02-23T17:58:47.099Z,59.63
2023-02-23T18:01:13.939Z,58.38
2023-02-23T18:03:40.539Z,60.50
2023-02-23T18:06:08.465Z,62.78
2023-02-23T18:08:36.097Z,65.15
2023-02-23T18:11:02.774Z,81.00
2023-02-23T18:13:30.244Z,78.22
2023-02-23T18:16:06.441Z,75.95
2023-02-23T18:18:33.064Z,83.25
2023-02-23T18:21:00.473Z,87.70
2023-02-23T18:23:28.969Z,88.35
2023-02-23T18:25:55.482Z,93.18
2023-02-23T18:28:21.873Z,103.10
2023-02-23T18:30:48.341Z,101.13
2023-02-23T18:33:14.980Z,105.03
2023-02-23T18:35:42.631Z,111.25
2023-02-23T18:38:11.608Z,103.82
2023-02-23T18:40:38.764Z,109.63
2023-02-23T18:43:05.382Z,99.30
2023-02-23T18:45:31.814Z,109.30
2023-02-23T18:47:58.294Z,96.22
2023-02-23T18:50:26.176Z,107.07
2023-02-23T18:52:56.599Z,100.13
2023-02-23T18:55:23.473Z,102.18
2023-02-23T18:57:51.273Z,108.72
2023-02-23T19:00:18.729Z,102.00
2023-02-23T19:02:48.801Z,108.15
2023-02-23T19:05:16.249Z,107.00
2023-02-23T19:07:42.783Z,108.40
2023-02-23T19:10:12.250Z,105.88
2023-02-23T19:12:39.092Z,109.63
2023-02-23T19:15:07.271Z,111.13
2023-02-23T19:17:34.110Z,97.40
2023-02-23T19:20:00.670Z,98.32
2023-02-23T19:22:28.100Z,95.35
2023-02-23T19:24:54.493Z,100.57
2023-02-23T19:27:21.181Z,102.38
2023-02-23T19:29:47.649Z,103.43
2023-02-23T19:32:16.268Z,90.80
2023-02-23T19:34:43.744Z,93.53
2023-02-23T19:37:10.179Z,98.07
2023-02-23T19:39:36.683Z,100.53
2023-02-23T19:42:03.220Z,109.15
2023-02-23T19:44:30.066Z,120.25
2023-02-23T19:46:57.243Z,107.40
2023-02-23T19:49:24.182Z,106.30
2023-02-23T19:51:52.916Z,107.20
2023-02-23T19:54:19.730Z,131.63
2023-02-23T19:56:46.263Z,139.55
2023-02-23T19:59:12.774Z,139.88
2023-02-23T20:01:39.304Z,133.35
2023-02-23T20:04:07.026Z,148.77
2023-02-23T20:06:36.139Z,152.00
2023-02-23T20:09:04.660Z,176.40
2023-02-23T20:11:32.541Z,161.63
2023-02-23T20:14:00.430Z,167.15
2023-02-23T20:16:29.415Z,175.95
2023-02-23T20:18:56.528Z,163.57
2023-02-23T20:21:24.139Z,166.60
2023-02-23T20:23:51.220Z,167.38
2023-02-23T20:26:19.330Z,183.73
2023-02-23T20:28:45.658Z,175.98
2023-02-23T20:31:16.717Z,167.35
2023-02-23T20:33:43.436Z,165.25
2023-02-23T20:36:12.050Z,162.25
2023-02-23T20:38:38.671Z,163.27
2023-02-23T20:41:05.153Z,162.70
2023-02-23T20:43:31.552Z,167.23
2023-02-23T20:46:00.895Z,156.00
2023-02-23T20:48:28.049Z,153.65
2023-02-23T20:50:55.323Z,136.85
2023-02-23T20:53:22.320Z,129.02
2023-02-23T20:55:49.155Z,129.70
2023-02-23T20:58:17.780Z,129.75
2023-02-23T21:00:44.366Z,129.00
2023-02-23T21:03:10.721Z,119.45
2023-02-23T21:05:40.399Z,115.55
2023-02-23T21:08:07.935Z,111.75
2023-02-23T21:10:36.494Z,109.90
2023-02-23T21:13:03.765Z,101.70
2023-02-23T21:15:32.742Z,103.18
2023-02-23T21:17:59.534Z,97.55
2023-02-23T21:20:27.808Z,95.75
2023-02-23T21:22:54.616Z,91.13
2023-02-23T21:25:21.977Z,84.45
2023-02-23T21:27:49.842Z,84.53
2023-02-23T21:30:19.593Z,75.35
2023-02-23T21:32:46.779Z,78.55
2023-02-23T21:35:13.238Z,73.63
2023-02-23T21:37:40.757Z,65.88
2023-02-23T21:40:10.596Z,64.90
2023-02-23T21:42:37.962Z,67.38
2023-02-23T21:45:04.515Z,65.07
2023-02-23T21:47:33.948Z,55.28
2023-02-23T21:50:00.448Z,61.22
2023-02-23T21:52:26.863Z,62.75
2023-02-23T21:54:53.315Z,52.03
2023-02-23T21:57:22.695Z,53.22
2023-02-23T21:59:49.646Z,54.67
2023-02-23T22:02:16.150Z,50.60
2023-02-23T22:04:45.596Z,54.97
2023-02-23T22:07:12.038Z,43.47
2023-02-23T22:09:38.409Z,45.53
2023-02-23T22:12:05.659Z,97.00
2023-02-23T22:14:32.084Z,107.05
2023-02-23T22:16:58.779Z,106.55
2023-02-23T22:19:25.188Z,105.20
2023-02-23T22:21:51.602Z,103.95
2023-02-23T22:24:18.032Z,93.93
2023-02-23T22:26:54.389Z,83.13
2023-02-23T22:29:21.661Z,89.07
2023-02-23T22:31:48.153Z,82.63
2023-02-23T22:34:14.718Z,89.43
2023-02-23T22:36:41.124Z,85.63
2023-02-23T22:39:09.657Z,85.97
2023-02-23T22:41:42.315Z,78.03
2023-02-23T22:44:09.616Z,71.00
2023-02-23T22:46:36.098Z,70.63
2023-02-23T22:49:03.508Z,65.32
2023-02-23T22:51:30.174Z,70.28
2023-02-23T22:53:56.804Z,70.63
2023-02-23T22:56:23.651Z,67.53
2023-02-23T22:58:52.638Z,75.10
2023-02-23T23:01:20.230Z,74.43
2023-02-23T23:03:47.003Z,64.03
2023-02-23T23:06:16.501Z,70.00
2023-02-23T23:08:44.709Z,73.10
2023-02-23T23:11:19.148Z,75.47
2023-02-23T23:13:48.436Z,77.85
2023-02-23T23:16:30.299Z,79.18
2023-02-23T23:19:07.838Z,78.03
2023-02-23T23:21:34.842Z,77.22
2023-02-23T23:24:02.191Z,83.95
2023-02-23T23:26:28.940Z,88.30
2023-02-23T23:28:57.826Z,94.18
2023-02-23T23:31:28.253Z,92.47
2023-02-23T23:33:55.811Z,93.05
2023-02-23T23:36:24.599Z,92.60
2023-02-23T23:38:51.645Z,92.15
2023-02-23T23:41:19.127Z,91.40
2023-02-23T23:43:46.439Z,95.95
2023-02-23T23:46:22.755Z,90.00
2023-02-23T23:48:49.751Z,87.35
2023-02-23T23:51:16.087Z,88.32
2023-02-23T23:53:42.498Z,81.22
2023-02-23T23:56:10.681Z,77.60
2023-02-23T23:58:37.674Z,69.70
